sensor_id;sensor_type;location;lat;lon;timestamp;pressure;altitude;pressure_sealevel;temperature;humidity
45763;BME280;37512;52.408;13.356;2023-07-24T00:00:15;100102.91;;;19.02;100.00
45763;BME280;37512;52.408;13.356;2023-07-24T00:04:17;100103.56;;;18.90;100.00
45763;BME280;37512;52.408;13.356;2023-07-24T00:08:18;100096.22;;;19.13;100.00
45763;BME280;37512;52.408;13.356;2023-07-24T00:12:20;100092.88;;;19.01;100.00
45763;BME280;37512;52.408;13.356;2023-07-24T00:16:21;100087.16;;;19.05;100.00
45763;BME280;37512;52.408;13.356;2023-07-24T00:20:23;100084.34;;;19.05;100.00
45763;BME280;37512;52.408;13.356;2023-07-24T00:24:26;100083.38;;;18.95;100.00
45763;BME280;37512;52.408;13.356;2023-07-24T00:28:28;100077.47;;;18.90;100.00
45763;BME280;37512;52.408;13.356;2023-07-24T00:32:29;100076.88;;;18.98;100.00
45763;BME280;37512;52.408;13.356;2023-07-24T00:36:31;100068.53;;;19.11;100.00
45763;BME280;37512;52.408;13.356;2023-07-24T00:40:33;100065.88;;;18.88;100.00
45763;BME280;37512;52.408;13.356;2023-07-24T00:44:34;100071.75;;;18.77;100.00
45763;BME280;37512;52.408;13.356;2023-07-24T00:48:37;100055.78;;;18.90;100.00
45763;BME280;37512;52.408;13.356;2023-07-24T00:52:39;100053.66;;;18.94;100.00
45763;BME280;37512;52.408;13.356;2023-07-24T00:56:41;100053.31;;;18.92;100.00
45763;BME280;37512;52.408;13.356;2023-07-24T01:00:43;100051.13;;;19.00;100.00
45763;BME280;37512;52.408;13.356;2023-07-24T01:04:46;100047.34;;;19.07;100.00
45763;BME280;37512;52.408;13.356;2023-07-24T01:08:48;100033.19;;;19.10;100.00
45763;BME280;37512;52.408;13.356;2023-07-24T01:16:58;100037.66;;;18.75;100.00
45763;BME280;37512;52.408;13.356;2023-07-24T01:21:01;100025.13;;;18.96;100.00
45763;BME280;37512;52.408;13.356;2023-07-24T01:25:18;100022.91;;;19.04;100.00
45763;BME280;37512;52.408;13.356;2023-07-24T01:29:24;100025.31;;;18.52;100.00
45763;BME280;37512;52.408;13.356;2023-07-24T01:33:26;100028.13;;;18.52;100.00
45763;BME280;37512;52.408;13.356;2023-07-24T01:37:28;100021.56;;;18.59;100.00
45763;BME280;37512;52.408;13.356;2023-07-24T01:41:30;100023.38;;;18.49;100.00
45763;BME280;37512;52.408;13.356;2023-07-24T01:45:32;100018.88;;;18.52;100.00
45763;BME280;37512;52.408;13.356;2023-07-24T01:49:34;100021.63;;;18.55;100.00
45763;BME280;37512;52.408;13.356;2023-07-24T01:53:35;100015.66;;;18.70;100.00
45763;BME280;37512;52.408;13.356;2023-07-24T01:57:37;100014.97;;;18.66;100.00
45763;BME280;37512;52.408;13.356;2023-07-24T02:01:38;100008.31;;;18.76;100.00
45763;BME280;37512;52.408;13.356;2023-07-24T02:05:40;100008.38;;;18.72;100.00
45763;BME280;37512;52.408;13.356;2023-07-24T02:09:42;100002.50;;;18.50;100.00
45763;BME280;37512;52.408;13.356;2023-07-24T02:13:44;100002.31;;;18.74;100.00
45763;BME280;37512;52.408;13.356;2023-07-24T02:17:46;99998.97;;;18.63;100.00
45763;BME280;37512;52.408;13.356;2023-07-24T02:21:48;99995.63;;;18.68;100.00
45763;BME280;37512;52.408;13.356;2023-07-24T02:25:52;99991.38;;;18.79;100.00
45763;BME280;37512;52.408;13.356;2023-07-24T02:29:54;99982.59;;;18.77;100.00
45763;BME280;37512;52.408;13.356;2023-07-24T02:33:56;99996.72;;;18.74;100.00
45763;BME280;37512;52.408;13.356;2023-07-24T02:37:57;99996.81;;;18.70;100.00
45763;BME280;37512;52.408;13.356;2023-07-24T02:41:59;100011.84;;;18.80;100.00
45763;BME280;37512;52.408;13.356;2023-07-24T02:46:01;100010.97;;;18.83;100.00
45763;BME280;37512;52.408;13.356;2023-07-24T02:50:04;100005.28;;;18.87;100.00
45763;BME280;37512;52.408;13.356;2023-07-24T02:54:05;100010.41;;;18.72;100.00
45763;BME280;37512;52.408;13.356;2023-07-24T02:58:07;100017.97;;;18.75;100.00
45763;BME280;37512;52.408;13.356;2023-07-24T03:02:09;100014.31;;;18.94;100.00
45763;BME280;37512;52.408;13.356;2023-07-24T03:06:10;100028.97;;;18.86;100.00
45763;BME280;37512;52.408;13.356;2023-07-24T03:10:12;100020.72;;;18.95;100.00
45763;BME280;37512;52.408;13.356;2023-07-24T03:14:13;100027.16;;;18.95;100.00
45763;BME280;37512;52.408;13.356;2023-07-24T03:18:15;100022.91;;;19.04;100.00
45763;BME280;37512;52.408;13.356;2023-07-24T03:22:17;100020.19;;;18.84;100.00
45763;BME280;37512;52.408;13.356;2023-07-24T03:26:19;100027.22;;;18.92;100.00
45763;BME280;37512;52.408;13.356;2023-07-24T03:30:20;100034.28;;;19.00;100.00
45763;BME280;37512;52.408;13.356;2023-07-24T03:34:22;100025.28;;;19.05;100.00
45763;BME280;37512;52.408;13.356;2023-07-24T03:38:23;100027.50;;;19.14;100.00
45763;BME280;37512;52.408;13.356;2023-07-24T03:46:28;100030.16;;;19.34;100.00
45763;BME280;37512;52.408;13.356;2023-07-24T03:50:29;100030.72;;;19.12;100.00
45763;BME280;37512;52.408;13.356;2023-07-24T03:54:31;100024.69;;;19.14;100.00
45763;BME280;37512;52.408;13.356;2023-07-24T03:58:33;100018.84;;;19.37;100.00
45763;BME280;37512;52.408;13.356;2023-07-24T04:02:34;100027.09;;;19.44;100.00
45763;BME280;37512;52.408;13.356;2023-07-24T04:06:36;100017.75;;;19.48;100.00
45763;BME280;37512;52.408;13.356;2023-07-24T04:10:37;100018.16;;;19.62;100.00
45763;BME280;37512;52.408;13.356;2023-07-24T04:14:39;100025.44;;;19.31;100.00
45763;BME280;37512;52.408;13.356;2023-07-24T04:18:40;100014.06;;;19.51;100.00
45763;BME280;37512;52.408;13.356;2023-07-24T04:22:42;100013.34;;;19.92;100.00
45763;BME280;37512;52.408;13.356;2023-07-24T04:26:43;100021.53;;;19.57;100.00
45763;BME280;37512;52.408;13.356;2023-07-24T04:30:45;100010.69;;;19.56;100.00
45763;BME280;37512;52.408;13.356;2023-07-24T04:34:47;100011.94;;;19.55;100.00
45763;BME280;37512;52.408;13.356;2023-07-24T04:38:48;100012.97;;;19.61;100.00
45763;BME280;37512;52.408;13.356;2023-07-24T04:42:50;100012.19;;;19.60;100.00
45763;BME280;37512;52.408;13.356;2023-07-24T04:46:51;100010.38;;;19.83;100.00
45763;BME280;37512;52.408;13.356;2023-07-24T04:50:54;100009.13;;;19.84;100.00
45763;BME280;37512;52.408;13.356;2023-07-24T04:54:56;100005.50;;;20.13;100.00
45763;BME280;37512;52.408;13.356;2023-07-24T04:58:58;100010.06;;;19.94;100.00
45763;BME280;37512;52.408;13.356;2023-07-24T05:02:59;100008.97;;;20.04;100.00
45763;BME280;37512;52.408;13.356;2023-07-24T05:07:01;99998.16;;;20.15;100.00
45763;BME280;37512;52.408;13.356;2023-07-24T05:11:02;99998.97;;;20.29;100.00
45763;BME280;37512;52.408;13.356;2023-07-24T05:15:04;99994.56;;;20.15;100.00
45763;BME280;37512;52.408;13.356;2023-07-24T05:19:06;99985.22;;;20.18;100.00
45763;BME280;37512;52.408;13.356;2023-07-24T05:23:08;99988.28;;;20.23;100.00
45763;BME280;37512;52.408;13.356;2023-07-24T05:27:12;99991.31;;;20.29;100.00
45763;BME280;37512;52.408;13.356;2023-07-24T05:31:14;99992.53;;;20.15;100.00
45763;BME280;37512;52.408;13.356;2023-07-24T05:35:15;99985.69;;;20.16;100.00
45763;BME280;37512;52.408;13.356;2023-07-24T05:39:17;99978.56;;;20.24;100.00
45763;BME280;37512;52.408;13.356;2023-07-24T05:43:18;99981.38;;;20.50;100.00
45763;BME280;37512;52.408;13.356;2023-07-24T05:47:20;99974.66;;;20.60;100.00
45763;BME280;37512;52.408;13.356;2023-07-24T05:51:22;99968.88;;;20.77;100.00
45763;BME280;37512;52.408;13.356;2023-07-24T05:55:24;99963.78;;;20.84;100.00
45763;BME280;37512;52.408;13.356;2023-07-24T05:59:25;99952.81;;;20.99;100.00
45763;BME280;37512;52.408;13.356;2023-07-24T06:03:27;99950.00;;;20.99;100.00
45763;BME280;37512;52.408;13.356;2023-07-24T06:07:29;99953.25;;;21.10;100.00
45763;BME280;37512;52.408;13.356;2023-07-24T06:11:30;99951.50;;;21.26;100.00
45763;BME280;37512;52.408;13.356;2023-07-24T06:15:32;99947.88;;;21.25;100.00
45763;BME280;37512;52.408;13.356;2023-07-24T06:19:34;99938.03;;;21.30;100.00
45763;BME280;37512;52.408;13.356;2023-07-24T06:23:35;99947.53;;;21.58;100.00
45763;BME280;37512;52.408;13.356;2023-07-24T06:27:37;99948.75;;;21.35;100.00
45763;BME280;37512;52.408;13.356;2023-07-24T06:31:39;99941.75;;;21.62;100.00
45763;BME280;37512;52.408;13.356;2023-07-24T06:35:40;99929.50;;;21.56;100.00
45763;BME280;37512;52.408;13.356;2023-07-24T06:39:43;99919.41;;;21.77;100.00
45763;BME280;37512;52.408;13.356;2023-07-24T06:43:45;99920.28;;;21.42;100.00
45763;BME280;37512;52.408;13.356;2023-07-24T06:47:46;99927.72;;;22.02;100.00
45763;BME280;37512;52.408;13.356;2023-07-24T06:51:48;99927.72;;;22.02;100.00
45763;BME280;37512;52.408;13.356;2023-07-24T06:55:49;99927.72;;;22.02;100.00
45763;BME280;37512;52.408;13.356;2023-07-24T06:59:51;99911.66;;;21.90;94.58
45763;BME280;37512;52.408;13.356;2023-07-24T07:03:55;99911.66;;;21.90;94.58
45763;BME280;37512;52.408;13.356;2023-07-24T07:07:57;99904.28;;;21.92;94.27
45763;BME280;37512;52.408;13.356;2023-07-24T07:11:58;99911.56;;;22.12;96.02
45763;BME280;37512;52.408;13.356;2023-07-24T07:16:00;99901.97;;;22.31;96.54
45763;BME280;37512;52.408;13.356;2023-07-24T07:20:02;99901.97;;;22.31;96.54
45763;BME280;37512;52.408;13.356;2023-07-24T07:24:05;99901.97;;;22.31;96.54
45763;BME280;37512;52.408;13.356;2023-07-24T07:28:07;99901.97;;;22.31;96.54
45763;BME280;37512;52.408;13.356;2023-07-24T07:32:08;99901.97;;;22.31;96.54
45763;BME280;37512;52.408;13.356;2023-07-24T07:36:10;99901.97;;;22.31;96.54
45763;BME280;37512;52.408;13.356;2023-07-24T07:40:13;99901.97;;;22.31;96.54
45763;BME280;37512;52.408;13.356;2023-07-24T07:44:14;99901.97;;;22.31;96.54
45763;BME280;37512;52.408;13.356;2023-07-24T07:48:16;99901.97;;;22.31;96.54
45763;BME280;37512;52.408;13.356;2023-07-24T07:52:17;99901.97;;;22.31;96.54
45763;BME280;37512;52.408;13.356;2023-07-24T07:56:19;99901.97;;;22.31;96.54
45763;BME280;37512;52.408;13.356;2023-07-24T08:00:21;99901.97;;;22.31;96.54
45763;BME280;37512;52.408;13.356;2023-07-24T08:04:22;99901.97;;;22.31;96.54
45763;BME280;37512;52.408;13.356;2023-07-24T08:08:24;99901.97;;;22.31;96.54
45763;BME280;37512;52.408;13.356;2023-07-24T08:12:26;99901.97;;;22.31;96.54
45763;BME280;37512;52.408;13.356;2023-07-24T08:16:27;99901.97;;;22.31;96.54
45763;BME280;37512;52.408;13.356;2023-07-24T08:20:30;99901.97;;;22.31;96.54
45763;BME280;37512;52.408;13.356;2023-07-24T08:24:35;99901.97;;;22.31;96.54
45763;BME280;37512;52.408;13.356;2023-07-24T08:28:37;99901.97;;;22.31;96.54
45763;BME280;37512;52.408;13.356;2023-07-24T08:32:39;99901.97;;;22.31;96.54
45763;BME280;37512;52.408;13.356;2023-07-24T08:36:41;99901.97;;;22.31;96.54
45763;BME280;37512;52.408;13.356;2023-07-24T08:40:42;99901.97;;;22.31;96.54
45763;BME280;37512;52.408;13.356;2023-07-24T08:44:44;99901.97;;;22.31;96.54
45763;BME280;37512;52.408;13.356;2023-07-24T08:48:46;99901.97;;;22.31;96.54
45763;BME280;37512;52.408;13.356;2023-07-24T08:52:47;99901.97;;;22.31;96.54
45763;BME280;37512;52.408;13.356;2023-07-24T08:56:49;99901.97;;;22.31;96.54
45763;BME280;37512;52.408;13.356;2023-07-24T09:00:53;99901.97;;;22.31;96.54
45763;BME280;37512;52.408;13.356;2023-07-24T09:04:54;99901.97;;;22.31;96.54
45763;BME280;37512;52.408;13.356;2023-07-24T09:12:57;70141.72;;;-146.77;69.64
45763;BME280;37512;52.408;13.356;2023-07-24T09:17:07;70141.72;;;-146.77;100.00
45763;BME280;37512;52.408;13.356;2023-07-24T09:21:10;70141.72;;;-146.77;100.00
45763;BME280;37512;52.408;13.356;2023-07-24T09:25:14;70141.72;;;-146.77;100.00
45763;BME280;37512;52.408;13.356;2023-07-24T09:29:16;70141.72;;;-146.77;100.00
45763;BME280;37512;52.408;13.356;2023-07-24T09:33:18;70141.72;;;-146.77;100.00
45763;BME280;37512;52.408;13.356;2023-07-24T09:37:27;70141.72;;;-146.77;100.00
45763;BME280;37512;52.408;13.356;2023-07-24T09:41:29;70141.72;;;-146.77;100.00
45763;BME280;37512;52.408;13.356;2023-07-24T09:45:32;70141.72;;;-146.77;100.00
45763;BME280;37512;52.408;13.356;2023-07-24T09:49:36;70141.72;;;-146.77;100.00
45763;BME280;37512;52.408;13.356;2023-07-24T09:53:43;70141.72;;;-146.77;100.00
45763;BME280;37512;52.408;13.356;2023-07-24T09:57:53;70141.72;;;-146.77;100.00
45763;BME280;37512;52.408;13.356;2023-07-24T10:01:55;70141.72;;;-146.77;100.00
45763;BME280;37512;52.408;13.356;2023-07-24T10:05:57;70141.72;;;-146.77;100.00
45763;BME280;37512;52.408;13.356;2023-07-24T10:09:58;70141.72;;;-146.77;100.00
45763;BME280;37512;52.408;13.356;2023-07-24T10:14:01;70141.72;;;-146.77;100.00
45763;BME280;37512;52.408;13.356;2023-07-24T10:18:04;70141.72;;;-146.77;100.00
45763;BME280;37512;52.408;13.356;2023-07-24T10:22:06;70141.72;;;-146.77;100.00
45763;BME280;37512;52.408;13.356;2023-07-24T10:26:09;70141.72;;;-146.77;100.00
45763;BME280;37512;52.408;13.356;2023-07-24T10:30:10;70141.72;;;-146.77;100.00
45763;BME280;37512;52.408;13.356;2023-07-24T10:34:38;70141.72;;;-146.77;100.00
45763;BME280;37512;52.408;13.356;2023-07-24T10:38:41;70141.72;;;-146.77;100.00
45763;BME280;37512;52.408;13.356;2023-07-24T10:42:44;70141.72;;;-146.77;100.00
45763;BME280;37512;52.408;13.356;2023-07-24T10:46:46;70141.72;;;-146.77;100.00
45763;BME280;37512;52.408;13.356;2023-07-24T10:50:49;70141.72;;;-146.77;100.00
45763;BME280;37512;52.408;13.356;2023-07-24T10:54:54;70141.72;;;-146.77;100.00
45763;BME280;37512;52.408;13.356;2023-07-24T10:58:55;70141.72;;;-146.77;100.00
45763;BME280;37512;52.408;13.356;2023-07-24T11:02:57;70141.72;;;-146.77;100.00
45763;BME280;37512;52.408;13.356;2023-07-24T11:07:00;70141.72;;;-146.77;100.00
45763;BME280;37512;52.408;13.356;2023-07-24T11:11:02;70141.72;;;-146.77;100.00
45763;BME280;37512;52.408;13.356;2023-07-24T11:15:06;70141.72;;;-146.77;100.00
45763;BME280;37512;52.408;13.356;2023-07-24T11:19:07;70141.72;;;-146.77;100.00
45763;BME280;37512;52.408;13.356;2023-07-24T11:23:10;70141.72;;;-146.77;100.00
45763;BME280;37512;52.408;13.356;2023-07-24T11:27:16;70141.72;;;-146.77;100.00
45763;BME280;37512;52.408;13.356;2023-07-24T11:31:18;70141.72;;;-146.77;100.00
45763;BME280;37512;52.408;13.356;2023-07-24T11:35:23;70141.72;;;-146.77;100.00
45763;BME280;37512;52.408;13.356;2023-07-24T11:39:26;70141.72;;;-146.77;100.00
45763;BME280;37512;52.408;13.356;2023-07-24T11:43:28;70141.72;;;-146.77;100.00
45763;BME280;37512;52.408;13.356;2023-07-24T11:47:29;70141.72;;;-146.77;100.00
45763;BME280;37512;52.408;13.356;2023-07-24T11:51:31;70141.72;;;-146.77;100.00
45763;BME280;37512;52.408;13.356;2023-07-24T11:55:35;99901.97;;;22.31;96.54
45763;BME280;37512;52.408;13.356;2023-07-24T11:59:38;99901.97;;;22.31;96.54
45763;BME280;37512;52.408;13.356;2023-07-24T12:03:41;99615.09;;;28.31;43.67
45763;BME280;37512;52.408;13.356;2023-07-24T12:07:44;99615.09;;;28.31;43.67
45763;BME280;37512;52.408;13.356;2023-07-24T12:11:49;99615.09;;;28.31;43.67
45763;BME280;37512;52.408;13.356;2023-07-24T12:15:50;99599.75;;;28.06;43.05
45763;BME280;37512;52.408;13.356;2023-07-24T12:19:52;99613.63;;;27.33;44.80
45763;BME280;37512;52.408;13.356;2023-07-24T12:23:53;99629.47;;;27.08;46.01
45763;BME280;37512;52.408;13.356;2023-07-24T12:27:55;99614.88;;;26.63;46.66
45763;BME280;37512;52.408;13.356;2023-07-24T12:31:57;99638.53;;;26.54;47.89
45763;BME280;37512;52.408;13.356;2023-07-24T12:35:58;99655.22;;;26.41;48.91
45763;BME280;37512;52.408;13.356;2023-07-24T12:40:00;99641.25;;;26.63;49.93
45763;BME280;37512;52.408;13.356;2023-07-24T12:44:01;99621.03;;;27.19;49.13
45763;BME280;37512;52.408;13.356;2023-07-24T12:48:03;99627.34;;;27.35;54.00
45763;BME280;37512;52.408;13.356;2023-07-24T12:52:05;99625.06;;;26.75;60.57
45763;BME280;37512;52.408;13.356;2023-07-24T12:56:07;99634.72;;;25.34;70.79
45763;BME280;37512;52.408;13.356;2023-07-24T13:00:09;99634.56;;;24.49;77.41
45763;BME280;37512;52.408;13.356;2023-07-24T13:04:11;99632.41;;;24.43;80.10
45763;BME280;37512;52.408;13.356;2023-07-24T13:08:13;99631.25;;;24.50;82.36
45763;BME280;37512;52.408;13.356;2023-07-24T13:12:15;99624.28;;;25.25;79.64
45763;BME280;37512;52.408;13.356;2023-07-24T13:16:17;99620.69;;;25.45;79.19
45763;BME280;37512;52.408;13.356;2023-07-24T13:20:18;99614.91;;;24.45;84.01
45763;BME280;37512;52.408;13.356;2023-07-24T13:24:20;99608.94;;;24.88;84.24
45763;BME280;37512;52.408;13.356;2023-07-24T13:28:23;99613.63;;;25.97;78.74
45763;BME280;37512;52.408;13.356;2023-07-24T13:32:25;99607.44;;;26.71;74.00
45763;BME280;37512;52.408;13.356;2023-07-24T13:36:26;99590.69;;;26.53;74.52
45763;BME280;37512;52.408;13.356;2023-07-24T13:40:29;99583.16;;;26.49;74.80
45763;BME280;37512;52.408;13.356;2023-07-24T13:44:30;99567.72;;;26.56;74.97
45763;BME280;37512;52.408;13.356;2023-07-24T13:48:32;99577.09;;;26.10;77.84
45763;BME280;37512;52.408;13.356;2023-07-24T13:52:33;99569.91;;;25.74;79.75
45763;BME280;37512;52.408;13.356;2023-07-24T13:56:35;99557.06;;;25.58;79.72
45763;BME280;37512;52.408;13.356;2023-07-24T14:00:37;99551.16;;;25.05;84.32
45763;BME280;37512;52.408;13.356;2023-07-24T14:04:38;99539.31;;;25.42;83.40
45763;BME280;37512;52.408;13.356;2023-07-24T14:08:40;99541.16;;;25.10;84.48
45763;BME280;37512;52.408;13.356;2023-07-24T14:12:42;99547.41;;;25.14;84.18
45763;BME280;37512;52.408;13.356;2023-07-24T14:16:43;99540.69;;;25.12;85.61
45763;BME280;37512;52.408;13.356;2023-07-24T14:20:45;99534.19;;;25.46;82.27
45763;BME280;37512;52.408;13.356;2023-07-24T14:24:48;99539.16;;;25.72;81.29
45763;BME280;37512;52.408;13.356;2023-07-24T14:28:50;99554.09;;;25.46;76.12
45763;BME280;37512;52.408;13.356;2023-07-24T14:32:51;99558.34;;;25.36;78.05
45763;BME280;37512;52.408;13.356;2023-07-24T14:36:53;99559.38;;;25.18;76.98
45763;BME280;37512;52.408;13.356;2023-07-24T14:40:54;99544.44;;;24.88;76.43
45763;BME280;37512;52.408;13.356;2023-07-24T14:44:56;99529.94;;;24.51;78.65
45763;BME280;37512;52.408;13.356;2023-07-24T14:49:03;99519.94;;;24.70;79.16
45763;BME280;37512;52.408;13.356;2023-07-24T14:53:04;99505.34;;;24.77;79.64
45763;BME280;37512;52.408;13.356;2023-07-24T14:57:06;99495.13;;;24.86;78.08
45763;BME280;37512;52.408;13.356;2023-07-24T15:01:25;99487.78;;;24.94;77.59
45763;BME280;37512;52.408;13.356;2023-07-24T15:05:30;99493.16;;;24.41;81.17
45763;BME280;37512;52.408;13.356;2023-07-24T15:09:31;99494.47;;;24.76;81.00
45763;BME280;37512;52.408;13.356;2023-07-24T15:13:33;99479.66;;;24.66;80.63
45763;BME280;37512;52.408;13.356;2023-07-24T15:17:34;99469.00;;;24.61;82.01
45763;BME280;37512;52.408;13.356;2023-07-24T15:21:36;99460.38;;;24.70;81.38
45763;BME280;37512;52.408;13.356;2023-07-24T15:25:37;99444.34;;;25.23;76.69
45763;BME280;37512;52.408;13.356;2023-07-24T15:29:39;99439.53;;;25.81;74.19
45763;BME280;37512;52.408;13.356;2023-07-24T15:33:41;99428.38;;;26.62;71.36
45763;BME280;37512;52.408;13.356;2023-07-24T15:37:42;99426.47;;;26.96;66.21
45763;BME280;37512;52.408;13.356;2023-07-24T15:41:44;99421.72;;;25.81;66.39
45763;BME280;37512;52.408;13.356;2023-07-24T15:45:46;99425.78;;;28.06;56.73
45763;BME280;37512;52.408;13.356;2023-07-24T15:49:48;99417.84;;;29.14;50.75
45763;BME280;37512;52.408;13.356;2023-07-24T15:53:49;99418.91;;;29.11;50.63
45763;BME280;37512;52.408;13.356;2023-07-24T15:57:50;99414.78;;;28.95;51.81
45763;BME280;37512;52.408;13.356;2023-07-24T16:01:53;99404.84;;;30.01;47.59
45763;BME280;37512;52.408;13.356;2023-07-24T16:05:55;99402.13;;;27.61;53.67
45763;BME280;37512;52.408;13.356;2023-07-24T16:09:56;99399.06;;;28.09;52.94
45763;BME280;37512;52.408;13.356;2023-07-24T16:13:58;99388.88;;;26.86;58.62
45763;BME280;37512;52.408;13.356;2023-07-24T16:17:59;99384.78;;;27.70;57.11
45763;BME280;37512;52.408;13.356;2023-07-24T16:22:04;99393.53;;;27.44;55.85
45763;BME280;37512;52.408;13.356;2023-07-24T16:26:05;99391.34;;;27.16;59.14
45763;BME280;37512;52.408;13.356;2023-07-24T16:30:07;99378.41;;;26.61;60.05
45763;BME280;37512;52.408;13.356;2023-07-24T16:34:10;99369.50;;;26.85;59.65
45763;BME280;37512;52.408;13.356;2023-07-24T16:38:13;99357.69;;;26.55;61.41
45763;BME280;37512;52.408;13.356;2023-07-24T16:42:16;99353.63;;;26.67;59.83
45763;BME280;37512;52.408;13.356;2023-07-24T16:46:19;99339.19;;;26.76;59.59
45763;BME280;37512;52.408;13.356;2023-07-24T16:50:23;99330.88;;;26.67;61.23
45763;BME280;37512;52.408;13.356;2023-07-24T16:54:26;99323.00;;;26.50;61.72
45763;BME280;37512;52.408;13.356;2023-07-24T16:58:28;99310.59;;;26.48;63.49
45763;BME280;37512;52.408;13.356;2023-07-24T17:02:29;99300.69;;;26.38;64.08
45763;BME280;37512;52.408;13.356;2023-07-24T17:06:33;99278.75;;;26.01;65.69
45763;BME280;37512;52.408;13.356;2023-07-24T17:10:43;99257.09;;;25.72;69.11
45763;BME280;37512;52.408;13.356;2023-07-24T17:14:45;99245.72;;;25.40;71.83
45763;BME280;37512;52.408;13.356;2023-07-24T17:18:49;99231.81;;;25.42;71.92
45763;BME280;37512;52.408;13.356;2023-07-24T17:22:55;99273.72;;;25.00;75.26
45763;BME280;37512;52.408;13.356;2023-07-24T17:26:57;99420.53;;;23.70;85.55
45763;BME280;37512;52.408;13.356;2023-07-24T17:30:58;99559.84;;;19.96;100.00
45763;BME280;37512;52.408;13.356;2023-07-24T17:35:00;99442.44;;;17.60;100.00
45763;BME280;37512;52.408;13.356;2023-07-24T17:39:02;99445.38;;;17.11;100.00
45763;BME280;37512;52.408;13.356;2023-07-24T17:43:04;99468.16;;;17.71;100.00
45763;BME280;37512;52.408;13.356;2023-07-24T17:47:05;99481.63;;;17.93;100.00
45763;BME280;37512;52.408;13.356;2023-07-24T17:51:07;99485.78;;;18.01;100.00
45763;BME280;37512;52.408;13.356;2023-07-24T17:55:08;99494.38;;;17.81;100.00
45763;BME280;37512;52.408;13.356;2023-07-24T17:59:10;99494.34;;;18.10;100.00
45763;BME280;37512;52.408;13.356;2023-07-24T18:03:12;70141.72;;;-146.77;100.00
45763;BME280;37512;52.408;13.356;2023-07-24T18:07:14;70141.72;;;-146.77;100.00
45763;BME280;37512;52.408;13.356;2023-07-24T18:11:16;70141.72;;;-146.77;100.00
45763;BME280;37512;52.408;13.356;2023-07-24T18:15:22;70141.72;;;-146.77;100.00
45763;BME280;37512;52.408;13.356;2023-07-24T18:20:20;70141.72;;;-146.77;100.00
45763;BME280;37512;52.408;13.356;2023-07-24T18:24:24;70141.72;;;-146.77;100.00
45763;BME280;37512;52.408;13.356;2023-07-24T18:29:24;70141.72;;;-146.77;100.00
45763;BME280;37512;52.408;13.356;2023-07-24T18:34:24;70141.72;;;-146.77;100.00
45763;BME280;37512;52.408;13.356;2023-07-24T18:39:25;70141.72;;;-146.77;100.00
45763;BME280;37512;52.408;13.356;2023-07-24T18:44:26;70141.72;;;-146.77;100.00
45763;BME280;37512;52.408;13.356;2023-07-24T18:49:32;70141.72;;;-146.77;100.00
45763;BME280;37512;52.408;13.356;2023-07-24T18:54:37;70141.72;;;-146.77;100.00
45763;BME280;37512;52.408;13.356;2023-07-24T18:59:38;70141.72;;;-146.77;100.00
45763;BME280;37512;52.408;13.356;2023-07-24T19:04:42;70141.72;;;-146.77;100.00
45763;BME280;37512;52.408;13.356;2023-07-24T19:09:43;70141.72;;;-146.77;100.00
45763;BME280;37512;52.408;13.356;2023-07-24T19:14:43;70141.72;;;-146.77;100.00
45763;BME280;37512;52.408;13.356;2023-07-24T19:19:44;70141.72;;;-146.77;100.00
45763;BME280;37512;52.408;13.356;2023-07-24T19:24:44;70141.72;;;-146.77;100.00
45763;BME280;37512;52.408;13.356;2023-07-24T19:28:57;70141.72;;;-146.77;100.00
45763;BME280;37512;52.408;13.356;2023-07-24T19:34:00;70141.72;;;-146.77;100.00
45763;BME280;37512;52.408;13.356;2023-07-24T19:39:00;70141.72;;;-146.77;100.00
45763;BME280;37512;52.408;13.356;2023-07-24T19:44:00;70141.72;;;-146.77;100.00
45763;BME280;37512;52.408;13.356;2023-07-24T19:49:00;70141.72;;;-146.77;100.00
45763;BME280;37512;52.408;13.356;2023-07-24T19:54:01;70141.72;;;-146.77;100.00
45763;BME280;37512;52.408;13.356;2023-07-24T19:59:03;70141.72;;;-146.77;100.00
45763;BME280;37512;52.408;13.356;2023-07-24T20:04:03;70141.72;;;-146.77;100.00
45763;BME280;37512;52.408;13.356;2023-07-24T20:09:03;70141.72;;;-146.77;100.00
45763;BME280;37512;52.408;13.356;2023-07-24T20:14:03;70141.72;;;-146.77;100.00
45763;BME280;37512;52.408;13.356;2023-07-24T20:19:03;70141.72;;;-146.77;100.00
45763;BME280;37512;52.408;13.356;2023-07-24T20:24:10;70141.72;;;-146.77;100.00
45763;BME280;37512;52.408;13.356;2023-07-24T20:29:21;70141.72;;;-146.77;100.00
45763;BME280;37512;52.408;13.356;2023-07-24T20:34:21;70141.72;;;-146.77;100.00
45763;BME280;37512;52.408;13.356;2023-07-24T20:39:22;70141.72;;;-146.77;100.00
45763;BME280;37512;52.408;13.356;2023-07-24T20:44:22;70141.72;;;-146.77;100.00
45763;BME280;37512;52.408;13.356;2023-07-24T20:49:22;70141.72;;;-146.77;100.00
45763;BME280;37512;52.408;13.356;2023-07-24T21:00:19;70141.72;;;-146.77;100.00
45763;BME280;37512;52.408;13.356;2023-07-24T21:05:19;70141.72;;;-146.77;100.00
45763;BME280;37512;52.408;13.356;2023-07-24T21:10:19;70141.72;;;-146.77;100.00
45763;BME280;37512;52.408;13.356;2023-07-24T21:15:20;70141.72;;;-146.77;100.00
45763;BME280;37512;52.408;13.356;2023-07-24T21:20:20;70141.72;;;-146.77;100.00
45763;BME280;37512;52.408;13.356;2023-07-24T21:25:21;70141.72;;;-146.77;100.00
45763;BME280;37512;52.408;13.356;2023-07-24T21:30:22;70141.72;;;-146.77;100.00
45763;BME280;37512;52.408;13.356;2023-07-24T21:35:23;70141.72;;;-146.77;100.00